Time;durP1;ratioP1;P1;durP2;ratioP2;P2;SDS_P1;SDS_P2;PMS_P1;PMS_P2;Temp;Humidity;BMP_temperature;BMP_pressure;BME280_temperature;BME280_humidity;BME280_pressure;Samples;Min_cycle;Max_cycle;Signal;HPM_P1;HPM_P2
2021/07/28 00:00:53;;;;;;;20.15;13.52;;;21.00;99.90;;;;;;5018047;28;20189;-89
2021/07/28 00:03:19;;;;;;;20.02;13.63;;;23.10;99.90;;;;;;5018103;28;20664;-90
2021/07/28 00:05:48;;;;;;;18.80;13.25;;;20.70;99.90;;;;;;5017871;28;20625;-90
2021/07/28 00:08:13;;;;;;;18.67;13.73;;;20.60;99.90;;;;;;5034017;28;20196;-90
2021/07/28 00:10:39;;;;;;;21.13;14.88;;;;;;;;;;5017439;28;20191;-89
2021/07/28 00:13:05;;;;;;;18.95;13.35;;;20.80;99.90;;;;;;5017021;28;20182;-89
2021/07/28 00:15:31;;;;;;;20.45;13.75;;;;;;;;;;5017310;28;20183;-90
2021/07/28 00:18:08;;;;;;;18.83;13.98;;;20.70;99.90;;;;;;5016598;28;20276;-89
2021/07/28 00:23:15;;;;;;;16.42;12.27;;;;;;;;;;5035709;28;20192;-90
2021/07/28 00:25:47;;;;;;;17.27;11.88;;;20.80;99.90;;;;;;5017192;28;20319;-89
2021/07/28 00:28:13;;;;;;;22.83;13.68;;;20.60;99.90;;;;;;5016746;28;20262;-89
2021/07/28 00:30:43;;;;;;;22.38;13.98;;;21.00;99.90;;;;;;5017481;28;20561;-89
2021/07/28 00:33:09;;;;;;;17.23;13.88;;;20.20;99.90;;;;;;5016677;28;20172;-89
2021/07/28 00:35:35;;;;;;;18.73;13.38;;;20.50;99.90;;;;;;5016911;28;20177;-89
2021/07/28 00:38:05;;;;;;;19.65;14.07;;;20.60;99.90;;;;;;5016390;28;20652;-90
2021/07/28 00:40:32;;;;;;;19.65;13.77;;;20.50;99.90;;;;;;5034794;28;20172;-90
2021/07/28 00:43:09;;;;;;;18.67;13.20;;;20.50;99.90;;;;;;5016324;28;20654;-89
2021/07/28 00:45:35;;;;;;;20.88;14.30;;;;;;;;;;5016548;28;20180;-89
2021/07/28 00:48:01;;;;;;;20.48;14.27;;;;;;;;;;5016026;28;20683;-89
2021/07/28 00:50:29;;;;;;;20.42;14.15;;;20.50;99.90;;;;;;5016757;28;20192;-90
2021/07/28 00:52:59;;;;;;;21.52;14.23;;;20.70;99.90;;;;;;5034267;28;20176;-90
2021/07/28 00:55:25;;;;;;;22.58;14.02;;;20.80;99.90;;;;;;5033216;28;20179;-89
2021/07/28 00:57:51;;;;;;;17.17;13.65;;;;;;;;;;5016606;28;20185;-89
2021/07/28 01:00:17;;;;;;;20.50;14.68;;;20.40;99.90;;;;;;5033891;28;20227;-89
2021/07/28 01:02:42;;;;;;;23.60;13.80;;;20.70;99.90;;;;;;5034539;28;20636;-89
2021/07/28 01:05:09;;;;;;;21.15;14.13;;;20.40;99.90;;;;;;5034215;28;20191;-89
2021/07/28 01:07:34;;;;;;;20.88;13.60;;;20.20;99.90;;;;;;5021295;28;20684;-89
2021/07/28 01:10:00;;;;;;;20.40;13.98;;;;;;;;;;5033864;28;20181;-87
2021/07/28 01:12:29;;;;;;;18.70;14.60;;;20.30;99.90;;;;;;5016007;28;20176;-89
2021/07/28 01:14:55;;;;;;;18.75;14.30;;;20.40;99.90;;;;;;5016059;28;20181;-89
2021/07/28 01:17:21;;;;;;;21.08;14.30;;;20.40;99.90;;;;;;5033493;28;20177;-88
2021/07/28 01:19:54;;;;;;;18.17;14.15;;;20.50;99.90;;;;;;5015859;28;20545;-90
2021/07/28 01:22:22;;;;;;;19.23;13.80;;;18.10;99.90;;;;;;5033007;28;20160;-87
2021/07/28 01:24:48;;;;;;;21.48;13.10;;;20.00;99.90;;;;;;5015794;28;20212;-87
2021/07/28 01:27:15;;;;;;;23.73;14.65;;;20.20;99.90;;;;;;5015336;28;20335;-88
2021/07/28 01:29:41;;;;;;;20.10;13.60;;;20.00;99.90;;;;;;5016318;28;20200;-89
2021/07/28 01:32:07;;;;;;;20.92;14.40;;;19.90;99.90;;;;;;5015559;28;20207;-88
2021/07/28 01:34:33;;;;;;;20.75;14.13;;;;;;;;;;5016012;28;20681;-88
2021/07/28 01:37:02;;;;;;;19.92;15.05;;;19.80;99.90;;;;;;5015605;28;20271;-88
2021/07/28 01:39:28;;;;;;;21.95;15.25;;;19.70;99.90;;;;;;5015278;28;20184;-88
2021/07/28 01:42:00;;;;;;;19.25;14.45;;;19.60;99.90;;;;;;5015679;28;20238;-88
2021/07/28 01:44:26;;;;;;;25.60;14.63;;;19.60;99.90;;;;;;5015728;28;20195;-89
2021/07/28 01:46:52;;;;;;;27.88;15.40;;;19.60;99.90;;;;;;5031724;28;20226;-89
2021/07/28 01:49:19;;;;;;;23.73;14.65;;;;;;;;;;5015379;28;20180;-88
2021/07/28 01:51:44;;;;;;;18.85;14.75;;;19.50;99.90;;;;;;5015702;28;20181;-88
2021/07/28 01:54:11;;;;;;;23.02;15.65;;;;;;;;;;5015449;28;20179;-87
2021/07/28 01:56:42;;;;;;;22.95;16.08;;;19.40;99.90;;;;;;5015800;28;20189;-87
2021/07/28 01:59:12;;;;;;;22.48;14.75;;;19.40;99.90;;;;;;5015335;28;20182;-87
2021/07/28 02:01:38;;;;;;;27.85;15.35;;;;;;;;;;5015335;28;20184;-87
2021/07/28 02:04:04;;;;;;;25.98;16.08;;;19.30;99.90;;;;;;5032873;28;20199;-87
2021/07/28 02:06:31;;;;;;;25.08;16.08;;;19.40;99.90;;;;;;5015510;28;20188;-87
2021/07/28 02:08:57;;;;;;;23.58;15.23;;;19.30;99.90;;;;;;5032591;28;20200;-87
2021/07/28 02:11:23;;;;;;;24.33;16.45;;;;;;;;;;5015084;28;20191;-87
2021/07/28 02:13:49;;;;;;;20.92;15.73;;;19.20;99.90;;;;;;5015271;28;20176;-87
2021/07/28 02:16:14;;;;;;;24.45;16.27;;;19.10;99.90;;;;;;5014904;28;20176;-87
2021/07/28 02:18:40;;;;;;;24.70;16.48;;;;;;;;;;5015026;28;20203;-87
2021/07/28 02:21:06;;;;;;;24.75;16.50;;;19.10;99.90;;;;;;5014868;28;20176;-87
2021/07/28 02:23:32;;;;;;;28.02;18.67;;;;;;;;;;5015483;28;20188;-88
2021/07/28 02:25:58;;;;;;;22.45;16.70;;;19.10;99.90;;;;;;5041807;28;20239;-89
2021/07/28 02:28:24;;;;;;;29.42;16.80;;;19.10;99.90;;;;;;5027137;28;20267;-89
2021/07/28 02:30:50;;;;;;;20.35;15.63;;;;;;;;;;5051760;28;20249;-88
2021/07/28 02:33:16;;;;;;;22.23;16.50;;;19.10;99.90;;;;;;5040310;28;20187;-90
2021/07/28 02:35:42;;;;;;;25.58;17.20;;;;;;;;;;5024157;28;20184;-89
2021/07/28 02:38:08;;;;;;;25.63;17.10;;;19.00;99.90;;;;;;5014727;28;20192;-89
2021/07/28 02:40:34;;;;;;;34.35;18.17;;;19.00;99.90;;;;;;5014748;28;20548;-88
2021/07/28 02:43:00;;;;;;;26.45;18.13;;;;;;;;;;5031293;28;20180;-88
2021/07/28 02:45:25;;;;;;;27.83;18.30;;;18.90;99.90;;;;;;5014687;28;20732;-89
2021/07/28 02:47:52;;;;;;;25.58;18.42;;;;;;;;;;5014750;28;20216;-89
2021/07/28 02:50:18;;;;;;;26.27;18.38;;;;;;;;;;5014592;28;20234;-89
2021/07/28 02:52:43;;;;;;;29.80;18.20;;;18.90;99.90;;;;;;5014904;28;20227;-89
2021/07/28 02:55:10;;;;;;;23.88;17.90;;;18.90;99.90;;;;;;5014923;28;20177;-88
2021/07/28 02:57:37;;;;;;;26.25;17.55;;;18.90;99.90;;;;;;5031254;28;20192;-89
2021/07/28 03:00:07;;;;;;;23.58;17.92;;;19.00;99.90;;;;;;5032333;28;20204;-89
2021/07/28 03:02:34;;;;;;;28.25;18.70;;;18.90;99.90;;;;;;5014457;28;20678;-89
2021/07/28 03:05:00;;;;;;;28.80;19.58;;;;;;;;;;5031216;28;20188;-89
2021/07/28 03:07:25;;;;;;;30.33;18.40;;;18.90;99.90;;;;;;5014305;28;20212;-89
2021/07/28 03:09:51;;;;;;;23.30;17.60;;;19.00;99.90;;;;;;5014729;28;20184;-87
2021/07/28 03:12:17;;;;;;;24.10;17.50;;;19.00;99.90;;;;;;5032349;28;20177;-89
2021/07/28 03:14:43;;;;;;;30.10;19.83;;;;;;;;;;5017746;28;20184;-88
2021/07/28 03:17:09;;;;;;;29.20;17.92;;;19.10;99.90;;;;;;5017948;28;20283;-88
2021/07/28 03:19:35;;;;;;;28.33;18.13;;;;;;;;;;5035273;28;20252;-88
2021/07/28 03:22:00;;;;;;;30.48;18.13;;;19.20;99.90;;;;;;5018245;28;20184;-89
2021/07/28 03:24:26;;;;;;;25.95;17.35;;;19.20;99.90;;;;;;5018289;28;20183;-88
2021/07/28 03:26:52;;;;;;;31.35;18.75;;;19.80;99.90;;;;;;5017897;28;20228;-89
2021/07/28 03:29:22;;;;;;;29.65;18.50;;;;;;;;;;5017799;28;20176;-90
2021/07/28 03:31:49;;;;;;;24.38;18.10;;;19.20;99.90;;;;;;5017930;28;20228;-88
2021/07/28 03:34:14;;;;;;;29.45;18.60;;;19.40;99.90;;;;;;5001965;28;20185;-88
2021/07/28 03:36:40;;;;;;;31.50;18.13;;;;;;;;;;5035828;28;20673;-88
2021/07/28 03:39:06;;;;;;;26.30;18.17;;;19.60;99.90;;;;;;5036209;28;20185;-87
2021/07/28 03:41:34;;;;;;;26.10;17.85;;;;;;;;;;5017872;28;20652;-87
2021/07/28 03:44:00;;;;;;;23.25;18.20;;;;;;;;;;5035955;28;20171;-87
2021/07/28 03:46:26;;;;;;;29.88;17.17;;;19.50;99.90;;;;;;5035525;28;20192;-86
2021/07/28 03:48:52;;;;;;;27.90;17.65;;;;;;;;;;5035910;28;20688;-86
2021/07/28 03:51:18;;;;;;;27.40;17.38;;;;;;;;;;5034327;28;20190;-87
2021/07/28 03:53:44;;;;;;;27.45;17.73;;;19.60;99.90;;;;;;5017685;28;20181;-87
2021/07/28 03:56:10;;;;;;;31.65;18.65;;;;;;;;;;5018073;28;20279;-87
2021/07/28 03:58:35;;;;;;;25.67;18.25;;;19.60;99.90;;;;;;5017465;28;20629;-87
2021/07/28 04:01:01;;;;;;;26.90;16.98;;;19.80;99.90;;;;;;5018230;28;20188;-87
2021/07/28 04:03:27;;;;;;;27.42;18.73;;;;;;;;;;5017261;28;20275;-88
2021/07/28 04:05:54;;;;;;;35.95;17.77;;;19.70;99.90;;;;;;5017826;28;20230;-88
2021/07/28 04:08:20;;;;;;;26.77;18.35;;;19.70;99.90;;;;;;5017776;28;20212;-87
2021/07/28 04:10:47;;;;;;;31.25;18.30;;;19.70;99.90;;;;;;5034271;28;20667;-86
2021/07/28 04:13:14;;;;;;;29.88;18.10;;;19.90;99.90;;;;;;5017561;28;20217;-86
2021/07/28 04:15:40;;;;;;;30.83;19.00;;;;;;;;;;5017494;28;20181;-87
2021/07/28 04:18:06;;;;;;;30.80;17.92;;;19.80;99.90;;;;;;5017584;28;20192;-87
2021/07/28 04:20:32;;;;;;;25.35;18.10;;;;;;;;;;5033659;28;20177;-87
2021/07/28 04:22:57;;;;;;;29.88;17.33;;;19.80;99.90;;;;;;5034913;28;20173;-87
2021/07/28 04:25:23;;;;;;;34.22;17.58;;;;;;;;;;5015972;28;20634;-87
2021/07/28 04:27:49;;;;;;;31.38;17.88;;;20.00;99.90;;;;;;5017061;28;20610;-87
2021/07/28 04:30:15;;;;;;;25.83;17.73;;;;;;;;;;5033751;28;20185;-88
2021/07/28 04:32:41;;;;;;;32.15;16.77;;;20.10;99.90;;;;;;5034486;28;20204;-87
2021/07/28 04:35:07;;;;;;;29.13;17.00;;;20.20;99.90;;;;;;5033414;28;20222;-88
2021/07/28 04:37:33;;;;;;;25.17;17.70;;;20.30;99.90;;;;;;5034441;28;20180;-88
2021/07/28 04:40:01;;;;;;;25.98;16.90;;;21.10;99.90;;;;;;5017109;28;20180;-88
2021/07/28 04:42:28;;;;;;;27.52;16.90;;;20.40;99.90;;;;;;5033242;28;20179;-87
2021/07/28 04:44:54;;;;;;;26.17;18.08;;;20.40;99.90;;;;;;5034793;28;20179;-87
2021/07/28 04:47:20;;;;;;;26.88;16.15;;;;;;;;;;5016952;28;20644;-87
2021/07/28 04:49:46;;;;;;;34.58;15.73;;;20.60;99.90;;;;;;5040820;28;20185;-86
2021/07/28 04:52:12;;;;;;;24.27;15.50;;;;;;;;;;5041729;28;20205;-86
2021/07/28 04:54:38;;;;;;;25.38;16.42;;;20.80;99.90;;;;;;5041664;28;20186;-89
2021/07/28 04:57:05;;;;;;;26.08;16.45;;;21.00;99.90;;;;;;5053553;28;20193;-87
2021/07/28 04:59:30;;;;;;;28.85;16.30;;;20.90;99.90;;;;;;5024543;28;20191;-87
2021/07/28 05:01:56;;;;;;;27.23;15.88;;;;;;;;;;5046101;28;20232;-87
2021/07/28 05:04:22;;;;;;;27.65;16.23;;;21.10;99.90;;;;;;5027858;28;20180;-87
2021/07/28 05:06:48;;;;;;;22.20;14.85;;;;;;;;;;5041988;28;20284;-87
2021/07/28 05:09:15;;;;;;;22.92;15.15;;;21.40;99.90;;;;;;5016065;28;20208;-88
2021/07/28 05:11:41;;;;;;;24.60;15.95;;;21.80;99.90;;;;;;5032496;28;20181;-87
2021/07/28 05:14:08;;;;;;;22.73;14.15;;;;;;;;;;5034119;28;20179;-87
2021/07/28 05:16:33;;;;;;;27.88;15.02;;;24.50;99.90;;;;;;5034241;28;20648;-88
2021/07/28 05:18:59;;;;;;;24.23;14.88;;;;;;;;;;5034276;28;20181;-89
2021/07/28 05:21:25;;;;;;;23.63;14.52;;;22.10;99.90;;;;;;5016294;28;20660;-90
2021/07/28 05:23:51;;;;;;;22.70;14.15;;;22.30;99.90;;;;;;5013460;28;20181;-89
2021/07/28 05:26:17;;;;;;;26.33;14.38;;;22.30;99.90;;;;;;5022316;28;20233;-89
2021/07/28 05:28:42;;;;;;;26.42;13.82;;;22.50;99.90;;;;;;4995637;28;20591;-89
2021/07/28 05:31:08;;;;;;;23.40;13.88;;;;;;;;;;5006818;28;20590;-90
2021/07/28 05:33:34;;;;;;;27.95;14.35;;;;;;;;;;5020518;28;20543;-89
2021/07/28 05:36:00;;;;;;;26.02;13.35;;;22.40;99.90;;;;;;4998221;28;20234;-88
2021/07/28 05:38:26;;;;;;;30.15;13.65;;;22.70;99.90;;;;;;5031896;28;20192;-89
2021/07/28 05:40:55;;;;;;;19.63;11.70;;;;;;;;;;5032061;28;20265;-89
2021/07/28 05:43:24;;;;;;;24.70;12.20;;;22.70;99.90;;;;;;5033177;28;20731;-89
2021/07/28 05:45:53;;;;;;;24.90;12.00;;;;;;;;;;5033029;28;20179;-90
2021/07/28 05:48:19;;;;;;;17.23;12.13;;;;;;;;;;5031758;28;20215;-89
2021/07/28 05:50:45;;;;;;;24.40;11.57;;;23.10;99.90;;;;;;5031479;28;20187;-89
2021/07/28 05:53:11;;;;;;;24.15;11.48;;;;;;;;;;5032583;28;20592;-90
2021/07/28 05:55:37;;;;;;;20.30;11.57;;;;;;;;;;5024523;28;20173;-89
2021/07/28 05:58:03;;;;;;;16.52;11.25;;;23.50;99.90;;;;;;5011914;28;20213;-90
2021/07/28 06:00:30;;;;;;;18.85;9.60;;;;;;;;;;5011987;28;20181;-89
2021/07/28 06:02:58;;;;;;;22.08;10.15;;;23.80;99.90;;;;;;5018621;28;20391;-92
2021/07/28 06:05:24;;;;;;;18.90;10.35;;;;;;;;;;5019678;28;20239;-92
2021/07/28 06:07:50;;;;;;;15.13;10.15;;;24.00;99.90;;;;;;5010548;28;20208;-92
2021/07/28 06:10:16;;;;;;;18.80;10.60;;;;;;;;;;5011273;28;20173;-90
2021/07/28 06:12:42;;;;;;;18.42;11.82;;;;;;;;;;5011955;28;20615;-90
2021/07/28 06:15:08;;;;;;;15.25;10.13;;;24.30;99.90;;;;;;5012250;28;20177;-90
2021/07/28 06:17:35;;;;;;;17.85;9.27;;;;;;;;;;5013398;28;20199;-90
2021/07/28 06:20:01;;;;;;;17.75;10.05;;;;;;;;;;5010457;28;20181;-90
2021/07/28 06:22:27;;;;;;;10.20;8.23;;;;;;;;;;5012182;28;20177;-90
2021/07/28 06:24:54;;;;;;;17.40;9.63;;;24.70;99.90;;;;;;4995678;28;20177;-91
2021/07/28 06:27:20;;;;;;;22.45;9.18;;;;;;;;;;4995616;28;20245;-90
2021/07/28 06:29:46;;;;;;;14.55;9.23;;;25.00;99.90;;;;;;5011841;28;20185;-90
2021/07/28 06:32:11;;;;;;;16.83;8.55;;;25.30;99.90;;;;;;5012929;28;20181;-90
2021/07/28 06:34:38;;;;;;;11.48;8.20;;;;;;;;;;5013074;28;20191;-91
2021/07/28 06:43:01;;;;;;;10.68;6.97;;;25.50;99.90;;;;;;4012242;22;20251;-88
2021/07/28 06:45:27;;;;;;;13.60;7.15;;;;;;;;;;5016647;28;20189;-91
2021/07/28 06:47:53;;;;;;;14.63;6.78;;;;;;;;;;5016467;28;20208;-89
2021/07/28 06:50:20;;;;;;;11.48;7.72;;;;;;;;;;5018933;28;20205;-89
2021/07/28 06:52:47;;;;;;;11.32;7.20;;;;;;;;;;5018616;28;20618;-88
2021/07/28 06:55:13;;;;;;;14.27;7.65;;;;;;;;;;5018599;28;20307;-88
2021/07/28 06:57:39;;;;;;;9.73;6.20;;;;;;;;;;5018612;28;20192;-88
2021/07/28 07:00:06;;;;;;;13.02;6.53;;;26.40;99.90;;;;;;5018859;28;20548;-89
2021/07/28 07:02:32;;;;;;;9.48;6.28;;;;;;;;;;5018582;28;20618;-89
2021/07/28 07:04:58;;;;;;;11.73;6.00;;;26.60;99.90;;;;;;5036435;28;20242;-87
2021/07/28 07:07:24;;;;;;;8.32;6.47;;;;;;;;;;5002141;28;20683;-88
2021/07/28 07:09:53;;;;;;;12.23;6.40;;;26.80;99.90;;;;;;5018091;28;20657;-88
2021/07/28 07:12:19;;;;;;;8.32;5.82;;;26.90;99.90;;;;;;5035947;28;20211;-88
2021/07/28 07:14:48;;;;;;;10.13;6.60;;;27.00;99.90;;;;;;5035798;28;20177;-87
2021/07/28 07:17:14;;;;;;;9.20;5.90;;;;;;;;;;5036074;28;20287;-88
2021/07/28 07:19:40;;;;;;;9.07;6.07;;;;;;;;;;5035949;28;20173;-87
2021/07/28 07:22:07;;;;;;;9.70;6.40;;;;;;;;;;5018061;28;20230;-88
2021/07/28 07:24:33;;;;;;;10.38;6.55;;;;;;;;;;5018249;28;20177;-88
2021/07/28 07:26:59;;;;;;;10.43;6.55;;;;;;;;;;5021218;28;20192;-88
2021/07/28 07:29:25;;;;;;;10.88;6.72;;;;;;;;;;5003492;28;20228;-88
2021/07/28 07:31:51;;;;;;;11.90;5.97;;;;;;;;;;5035329;28;20648;-88
2021/07/28 07:34:17;;;;;;;9.05;5.90;;;;;;;;;;5001802;28;20663;-90
2021/07/28 07:36:43;;;;;;;7.45;6.07;;;;;;;;;;5017489;28;20203;-89
2021/07/28 07:39:09;;;;;;;10.10;6.20;;;;;;;;;;5018169;28;20219;-90
2021/07/28 07:41:35;;;;;;;9.07;5.85;;;28.00;99.90;;;;;;5017423;28;20176;-88
2021/07/28 07:44:01;;;;;;;8.75;5.95;;;;;;;;;;5017406;28;20184;-89
2021/07/28 07:46:28;;;;;;;9.45;5.85;;;;;;;;;;5017661;28;20625;-88
2021/07/28 07:48:55;;;;;;;10.45;6.28;;;28.10;99.90;;;;;;5017297;28;20274;-88
2021/07/28 07:51:22;;;;;;;12.05;5.63;;;;;;;;;;5017347;28;20238;-89
2021/07/28 07:53:48;;;;;;;8.38;6.10;;;;;;;;;;5017401;28;20192;-89
2021/07/28 07:56:14;;;;;;;7.55;6.07;;;;;;;;;;5035388;28;20235;-89
2021/07/28 07:58:39;;;;;;;8.95;5.75;;;28.40;99.90;;;;;;5016946;28;20279;-90
2021/07/28 08:01:09;;;;;;;8.23;6.25;;;28.30;99.90;;;;;;5016311;28;20263;-89
2021/07/28 08:03:36;;;;;;;6.60;5.63;;;28.30;99.90;;;;;;5015478;28;20349;-89
2021/07/28 08:06:03;;;;;;;5.93;5.03;;;28.40;99.90;;;;;;5044127;28;20180;-89
2021/07/28 08:08:28;;;;;;;11.55;5.95;;;28.50;99.90;;;;;;5017049;28;20217;-89
2021/07/28 08:10:55;;;;;;;7.32;5.63;;;28.50;99.90;;;;;;5043558;28;20183;-88
2021/07/28 08:13:22;;;;;;;9.52;5.70;;;28.60;99.90;;;;;;4999005;28;20590;-90
2021/07/28 08:15:48;;;;;;;10.00;6.00;;;28.70;99.90;;;;;;5033210;28;20193;-89
2021/07/28 08:18:13;;;;;;;7.72;5.63;;;28.80;99.90;;;;;;5033098;28;20668;-90
2021/07/28 08:20:39;;;;;;;7.72;5.13;;;28.90;99.90;;;;;;4995991;28;20192;-89
2021/07/28 08:23:05;;;;;;;9.75;5.65;;;29.00;99.90;;;;;;5000098;28;20280;-89
2021/07/28 08:25:31;;;;;;;5.75;5.07;;;29.10;99.90;;;;;;5015577;28;20191;-92
2021/07/28 08:27:57;;;;;;;5.93;4.30;;;29.10;99.90;;;;;;5014315;28;20239;-89
2021/07/28 08:30:22;;;;;;;7.97;5.18;;;29.10;99.90;;;;;;5031126;28;20188;-90
2021/07/28 08:32:48;;;;;;;9.20;5.20;;;29.10;99.90;;;;;;5013065;28;20231;-90
2021/07/28 08:35:14;;;;;;;10.75;4.97;;;29.20;99.90;;;;;;5013131;28;20181;-92
2021/07/28 08:37:41;;;;;;;6.97;4.53;;;29.20;99.90;;;;;;4997434;28;20196;-93
2021/07/28 08:40:12;;;;;;;9.85;4.55;;;29.30;99.90;;;;;;5032426;28;20219;-90
2021/07/28 08:42:40;;;;;;;7.43;4.13;;;29.20;99.90;;;;;;5015435;28;20240;-90
2021/07/28 08:45:07;;;;;;;5.40;4.53;;;29.40;98.60;;;;;;5033923;28;20173;-90
2021/07/28 08:47:37;;;;;;;5.10;3.83;;;29.50;96.00;;;;;;5034066;28;20216;-90
2021/07/28 08:50:05;;;;;;;5.70;4.15;;;29.70;92.70;;;;;;5034016;28;20630;-90
2021/07/28 08:52:33;;;;;;;4.78;3.80;;;29.80;92.20;;;;;;5034246;28;20177;-89
2021/07/28 08:54:59;;;;;;;5.00;3.75;;;29.70;92.50;;;;;;5033770;28;20176;-89
2021/07/28 08:57:27;;;;;;;5.20;4.03;;;29.80;91.40;;;;;;5034562;28;20279;-90
2021/07/28 08:59:57;;;;;;;4.82;4.18;;;29.80;93.80;;;;;;5016206;28;20215;-90
2021/07/28 09:02:23;;;;;;;5.22;4.10;;;29.90;91.80;;;;;;5034115;28;20173;-90
2021/07/28 09:04:48;;;;;;;4.70;4.18;;;29.90;91.50;;;;;;5016234;28;20188;-90
2021/07/28 09:07:15;;;;;;;5.50;4.35;;;30.00;92.30;;;;;;5015942;28;20235;-87
2021/07/28 09:09:51;;;;;;;6.07;4.20;;;30.00;91.80;;;;;;5016497;28;20180;-91
2021/07/28 09:12:17;;;;;;;4.78;3.90;;;30.10;91.40;;;;;;5015065;28;20326;-91
2021/07/28 09:14:59;;;;;;;6.13;4.55;;;30.20;91.20;;;;;;5034157;28;20176;-91
2021/07/28 09:17:29;;;;;;;5.40;4.28;;;30.30;90.50;;;;;;5035829;28;20160;-92
2021/07/28 09:19:56;;;;;;;6.57;4.07;;;30.30;89.90;;;;;;5033758;28;20645;-92
2021/07/28 09:22:23;;;;;;;5.03;4.35;;;30.40;89.50;;;;;;5016200;28;20181;-91
2021/07/28 09:25:20;;;;;;;8.80;4.53;;;30.50;90.00;;;;;;5041671;28;20672;-89
2021/07/28 09:27:51;;;;;;;5.35;4.32;;;30.60;90.40;;;;;;5024486;28;20189;-88
2021/07/28 09:30:25;;;;;;;5.07;4.50;;;30.60;88.60;;;;;;5037531;28;20697;-88
2021/07/28 09:33:07;;;;;;;7.18;4.80;;;31.00;88.50;;;;;;5036634;28;20183;-89
2021/07/28 09:35:48;;;;;;;5.22;4.72;;;30.80;88.00;;;;;;5033723;28;20176;-91
2021/07/28 09:38:43;;;;;;;7.05;4.65;;;30.80;88.60;;;;;;5033252;28;20621;-89
2021/07/28 09:41:27;;;;;;;6.25;4.50;;;31.00;86.30;;;;;;5034063;28;20180;-90
2021/07/28 09:43:55;;;;;;;6.32;5.03;;;31.10;86.20;;;;;;5034116;28;20230;-91
2021/07/28 09:46:24;;;;;;;5.85;5.20;;;31.20;87.00;;;;;;5041996;28;20234;-91
2021/07/28 09:48:50;;;;;;;4.93;4.40;;;31.30;86.50;;;;;;5033368;28;20236;-91
2021/07/28 09:51:49;;;;;;;5.20;4.15;;;31.50;88.60;;;;;;5015991;28;20224;-91
2021/07/28 09:54:15;;;;;;;5.72;4.30;;;31.60;84.40;;;;;;5011455;28;20216;-90
2021/07/28 09:56:54;;;;;;;5.80;4.13;;;31.70;82.10;;;;;;4999438;28;20223;-90
2021/07/28 09:59:22;;;;;;;4.93;4.00;;;31.80;77.30;;;;;;5015477;28;20266;-91
2021/07/28 10:01:48;;;;;;;12.45;4.53;;;;;;;;;;5033254;28;20181;-92
2021/07/28 10:04:15;;;;;;;7.25;4.80;;;31.60;79.20;;;;;;5015783;28;20180;-91
2021/07/28 10:06:43;;;;;;;5.50;4.60;;;31.60;79.90;;;;;;5015420;28;20239;-90
2021/07/28 10:09:16;;;;;;;5.85;4.32;;;31.40;82.20;;;;;;5032958;28;20671;-90
2021/07/28 10:11:52;;;;;;;12.85;4.75;;;31.60;80.80;;;;;;5015534;28;20192;-90
2021/07/28 10:14:20;;;;;;;5.22;4.63;;;31.80;82.80;;;;;;5032797;28;20171;-88
2021/07/28 10:16:51;;;;;;;8.05;4.40;;;32.00;77.70;;;;;;5033042;28;20243;-94
2021/07/28 10:19:17;;;;;;;5.60;4.43;;;32.10;81.50;;;;;;5015223;28;20272;-93
2021/07/28 10:21:43;;;;;;;4.95;4.30;;;32.20;80.50;;;;;;4999040;28;20531;-91
2021/07/28 10:24:09;;;;;;;8.13;5.20;;;32.00;80.60;;;;;;5036629;28;20173;-92
2021/07/28 10:26:39;;;;;;;5.65;4.65;;;31.70;78.10;;;;;;5041403;28;20249;-92
2021/07/28 10:29:05;;;;;;;6.72;4.82;;;31.40;80.00;;;;;;5044154;28;20280;-91
2021/07/28 10:31:47;;;;;;;10.38;4.72;;;31.30;82.70;;;;;;5061145;28;20200;-89
2021/07/28 10:34:27;;;;;;;5.93;4.60;;;31.30;82.90;;;;;;5053406;28;20177;-89
2021/07/28 10:36:55;;;;;;;7.47;4.70;;;31.60;82.20;;;;;;5041644;28;20189;-92
2021/07/28 10:39:36;;;;;;;6.97;4.90;;;31.90;83.60;;;;;;5037205;28;20180;-92
2021/07/28 10:42:06;;;;;;;5.82;4.22;;;32.20;81.50;;;;;;5046331;28;20224;-95
2021/07/28 10:44:57;;;;;;;9.20;4.68;;;32.20;77.30;;;;;;5002930;28;20622;-92
2021/07/28 10:47:41;;;;;;;8.27;6.43;;;32.20;77.90;;;;;;5018910;28;20180;-92
2021/07/28 10:50:30;;;;;;;10.45;5.15;;;31.80;81.30;;;;;;5020070;28;20176;-93
2021/07/28 10:53:02;;;;;;;6.53;5.07;;;31.90;81.00;;;;;;5007906;28;20189;-92
2021/07/28 10:55:32;;;;;;;7.53;4.65;;;32.00;82.10;;;;;;5018892;28;20637;-94
2021/07/28 10:58:07;;;;;;;7.10;5.25;;;32.30;80.10;;;;;;5036648;28;20189;-92
2021/07/28 11:00:38;;;;;;;4.38;3.97;;;32.60;78.30;;;;;;5018555;28;20621;-92
2021/07/28 11:03:04;;;;;;;6.30;4.47;;;;;;;;;;5036732;28;20176;-93
2021/07/28 11:05:34;;;;;;;6.22;4.50;;;33.00;74.60;;;;;;5038664;28;20203;-94
2021/07/28 11:08:03;;;;;;;11.07;4.53;;;33.00;74.60;;;;;;5038180;28;20199;-96
2021/07/28 11:10:29;;;;;;;6.30;4.20;;;;;;;;;;5042368;28;20177;-96
2021/07/28 11:12:55;;;;;;;5.50;3.90;;;33.00;72.30;;;;;;5018993;28;20180;-96
2021/07/28 11:15:22;;;;;;;6.43;3.55;;;33.10;70.10;;;;;;5020254;28;20180;-94
2021/07/28 11:17:55;;;;;;;4.55;3.45;;;33.10;65.60;;;;;;5002926;28;20196;-94
2021/07/28 11:20:32;;;;;;;6.13;4.78;;;32.90;70.50;;;;;;5019035;28;20291;-93
2021/07/28 11:23:16;;;;;;;4.40;4.00;;;33.00;71.00;;;;;;5036267;28;20229;-92
2021/07/28 11:25:42;;;;;;;4.97;4.20;;;;;;;;;;5018910;28;20238;-94
2021/07/28 11:28:08;;;;;;;7.43;4.30;;;32.80;73.40;;;;;;5019611;28;20661;-93
2021/07/28 11:30:34;;;;;;;4.82;4.38;;;32.60;72.40;;;;;;4985687;28;20189;-92
2021/07/28 11:33:13;;;;;;;5.65;4.30;;;32.90;70.20;;;;;;5017856;28;20185;-93
2021/07/28 11:35:46;;;;;;;4.47;3.97;;;32.90;70.50;;;;;;5017674;28;20626;-91
2021/07/28 11:38:19;;;;;;;6.03;3.88;;;32.20;70.70;;;;;;5020733;28;20183;-90
2021/07/28 11:40:48;;;;;;;5.57;4.18;;;32.30;69.70;;;;;;5021511;28;20760;-93
2021/07/28 11:43:19;;;;;;;5.43;4.00;;;32.30;70.50;;;;;;5025809;28;20223;-94
2021/07/28 11:45:45;;;;;;;6.18;4.13;;;;;;;;;;5029008;28;20240;-92
2021/07/28 11:48:44;;;;;;;4.05;3.63;;;32.40;67.10;;;;;;5038374;28;20240;-92
2021/07/28 11:51:16;;;;;;;4.53;3.55;;;32.40;65.80;;;;;;5020094;28;20539;-93
2021/07/28 11:53:42;;;;;;;8.43;3.90;;;;;;;;;;5007860;28;20188;-94
2021/07/28 11:56:13;;;;;;;3.90;3.38;;;32.40;64.00;;;;;;5018620;28;20188;-95
2021/07/28 11:58:50;;;;;;;4.82;4.03;;;32.80;64.90;;;;;;5002024;28;20184;-94
2021/07/28 12:01:23;;;;;;;6.50;4.97;;;32.20;65.10;;;;;;5016128;28;20204;-93
2021/07/28 12:04:05;;;;;;;5.05;4.20;;;32.40;65.80;;;;;;5018186;28;20231;-94
2021/07/28 12:06:31;;;;;;;6.38;4.13;;;;;;;;;;5015771;28;20223;-94
2021/07/28 12:09:24;;;;;;;5.80;4.15;;;32.40;65.10;;;;;;5033338;28;20683;-94
2021/07/28 12:11:53;;;;;;;4.55;3.80;;;32.40;65.50;;;;;;5034736;28;20169;-93
2021/07/28 12:14:31;;;;;;;4.65;4.03;;;32.20;66.30;;;;;;5016897;28;20701;-94
2021/07/28 12:17:18;;;;;;;12.05;4.15;;;32.40;68.20;;;;;;5034147;28;20164;-92
2021/07/28 12:19:57;;;;;;;5.00;4.00;;;32.40;68.80;;;;;;5033871;28;20188;-94
2021/07/28 12:22:27;;;;;;;6.28;4.60;;;32.50;67.20;;;;;;5017821;28;20510;-94
2021/07/28 12:24:53;;;;;;;6.82;4.43;;;32.50;70.00;;;;;;5035394;28;20204;-92
2021/07/28 12:27:24;;;;;;;5.68;4.03;;;32.50;68.80;;;;;;4985636;28;20634;-95
2021/07/28 12:30:00;;;;;;;9.60;4.43;;;32.50;69.40;;;;;;5018041;28;20608;-96
2021/07/28 12:32:35;;;;;;;6.70;4.15;;;32.50;68.40;;;;;;5018385;28;20176;-90
2021/07/28 12:35:03;;;;;;;6.38;4.32;;;32.70;68.20;;;;;;5017312;28;20186;-92
2021/07/28 12:37:29;;;;;;;5.88;4.30;;;;;;;;;;5035210;28;20227;-94
2021/07/28 12:39:58;;;;;;;5.93;4.75;;;32.90;68.60;;;;;;5017917;28;20177;-93
2021/07/28 12:42:24;;;;;;;8.35;4.38;;;33.10;71.10;;;;;;5016762;28;20290;-93
2021/07/28 12:44:51;;;;;;;8.15;4.35;;;32.90;71.60;;;;;;5034237;28;20177;-93
2021/07/28 12:47:17;;;;;;;17.30;7.40;;;32.60;68.80;;;;;;5001485;28;20215;-93
2021/07/28 12:49:43;;;;;;;7.18;4.47;;;;;;;;;;5035302;28;20176;-93
2021/07/28 12:52:09;;;;;;;5.75;5.05;;;32.50;67.40;;;;;;5035674;28;20183;-92
2021/07/28 12:54:35;;;;;;;11.45;5.72;;;;;;;;;;5034323;28;20707;-94
2021/07/28 12:57:01;;;;;;;6.95;4.75;;;32.80;69.00;;;;;;5018457;28;20177;-93
2021/07/28 12:59:26;;;;;;;8.23;4.60;;;32.90;69.10;;;;;;4986033;28;20192;-92
2021/07/28 13:01:55;;;;;;;10.68;5.10;;;33.00;69.20;;;;;;5019048;28;20271;-94
2021/07/28 13:04:21;;;;;;;9.18;5.07;;;33.10;68.60;;;;;;5017947;28;20180;-94
2021/07/28 13:06:53;;;;;;;10.38;4.50;;;33.00;68.70;;;;;;5018286;28;20184;-93
2021/07/28 13:09:18;;;;;;;12.40;5.85;;;;;;;;;;5034632;28;20199;-92
2021/07/28 13:11:44;;;;;;;6.22;5.00;;;32.70;69.50;;;;;;5016288;28;20189;-94
2021/07/28 13:14:10;;;;;;;9.10;4.70;;;32.70;70.00;;;;;;4983063;28;20180;-93
2021/07/28 13:16:35;;;;;;;11.20;7.68;;;32.80;70.10;;;;;;5003625;28;20636;-92
2021/07/28 13:19:01;;;;;;;8.50;5.18;;;33.20;70.70;;;;;;5032284;28;20254;-93